Terminal Aerodrome Forecast
Issued by NWS

Home | Current Version | Previous Version | Graphics & Text | Print | Product List | Glossary On
Versions: 1 2 3 4 5 6 7 8 9 10 11 12 13 14 15 16 17
806
FTUS43 KBIS 222320
TAFJMS
TAF
KJMS 222320Z 2300/2324 20012KT P6SM SKC
     FM230100 19009KT P6SM FEW050 FEW250
     FM231900 02007KT P6SM SCT100=

USA.gov is the U.S. government's official web portal to all federal, state and local government web resources and services.